createdAt,value
2019-05-17T00:01:28.935Z,48.20
2019-05-17T00:03:58.729Z,48.50
2019-05-17T00:06:28.321Z,48.20
2019-05-17T00:08:57.932Z,48.40
2019-05-17T00:11:27.648Z,48.50
2019-05-17T00:13:57.324Z,48.60
2019-05-17T00:16:27.054Z,48.60
2019-05-17T00:18:56.898Z,48.20
2019-05-17T00:21:27.463Z,48.30
2019-05-17T00:23:57.373Z,48.50
2019-05-17T00:26:27.091Z,48.40
2019-05-17T00:28:56.660Z,48.50
2019-05-17T00:31:26.410Z,48.50
2019-05-17T00:33:56.594Z,48.60
2019-05-17T00:36:27.626Z,48.60
2019-05-17T00:38:57.235Z,48.70
2019-05-17T00:41:27.060Z,48.60
2019-05-17T00:43:57.032Z,48.70
2019-05-17T00:46:26.834Z,48.80
2019-05-17T00:48:57.307Z,48.80
2019-05-17T00:51:28.097Z,49.00
2019-05-17T00:53:57.717Z,49.10
2019-05-17T00:56:27.317Z,49.20
2019-05-17T00:58:56.944Z,49.20
2019-05-17T01:01:27.138Z,49.50
2019-05-17T01:03:57.208Z,49.30
2019-05-17T01:06:27.511Z,49.60
2019-05-17T01:09:01.925Z,49.50
2019-05-17T01:11:28.619Z,49.50
2019-05-17T01:13:58.658Z,49.40
2019-05-17T01:16:28.497Z,49.60
2019-05-17T01:18:58.370Z,49.60
2019-05-17T01:21:28.047Z,49.60
2019-05-17T01:23:57.654Z,49.70
2019-05-17T01:26:27.240Z,49.80
2019-05-17T01:28:57.313Z,49.80
2019-05-17T01:31:27.113Z,50.30
2019-05-17T01:33:56.721Z,50.10
2019-05-17T01:36:26.500Z,50.20
2019-05-17T01:38:57.662Z,50.30
2019-05-17T01:41:27.359Z,50.40
2019-05-17T01:43:57.040Z,50.50
2019-05-17T01:46:27.297Z,50.50
2019-05-17T01:48:57.765Z,50.70
2019-05-17T01:51:27.549Z,50.50
2019-05-17T01:53:57.470Z,50.70
2019-05-17T01:56:27.100Z,50.60
2019-05-17T01:58:57.509Z,50.90
2019-05-17T02:01:27.662Z,50.90
2019-05-17T02:03:57.599Z,51.00
2019-05-17T02:06:27.234Z,51.10
2019-05-17T02:08:56.982Z,51.20
2019-05-17T02:11:43.176Z,51.40
2019-05-17T02:14:12.828Z,51.40
2019-05-17T02:16:42.983Z,51.40
2019-05-17T02:19:12.651Z,51.40
2019-05-17T02:21:42.562Z,51.30
2019-05-17T02:24:12.165Z,51.40
2019-05-17T02:26:42.062Z,51.40
2019-05-17T02:29:12.042Z,51.20
2019-05-17T02:31:43.590Z,51.40
2019-05-17T02:34:14.166Z,51.70
2019-05-17T02:36:44.265Z,51.70
2019-05-17T02:39:13.931Z,51.60
2019-05-17T02:41:43.607Z,51.70
2019-05-17T02:44:13.337Z,52.00
2019-05-17T02:46:43.570Z,51.90
2019-05-17T02:49:13.912Z,51.70
2019-05-17T02:51:43.533Z,51.50
2019-05-17T02:54:13.471Z,51.90
2019-05-17T02:56:43.763Z,51.90
2019-05-17T02:59:13.831Z,52.10
2019-05-17T03:01:44.371Z,52.70
2019-05-17T03:04:14.243Z,52.30
2019-05-17T03:06:44.214Z,52.30
2019-05-17T03:09:13.863Z,52.20
2019-05-17T03:11:43.475Z,52.40
2019-05-17T03:14:13.214Z,52.20
2019-05-17T03:16:43.366Z,52.10
2019-05-17T03:19:13.342Z,52.50
2019-05-17T03:21:43.314Z,52.50
2019-05-17T03:24:13.865Z,52.40
2019-05-17T03:32:36.353Z,52.60
2019-05-17T03:35:08.065Z,52.60
2019-05-17T03:37:38.295Z,52.50
2019-05-17T03:40:23.567Z,52.50
2019-05-17T03:42:42.791Z,52.50
2019-05-17T03:45:13.686Z,52.60
2019-05-17T03:47:44.579Z,52.60
2019-05-17T03:50:14.837Z,52.30
2019-05-17T03:52:45.014Z,52.10
2019-05-17T03:55:15.111Z,52.20
2019-05-17T03:57:44.692Z,52.20
2019-05-17T04:00:16.001Z,52.20
2019-05-17T04:02:45.857Z,52.30
2019-05-17T04:05:15.514Z,52.40
2019-05-17T04:07:45.139Z,52.30
2019-05-17T04:10:15.711Z,52.40
2019-05-17T04:12:46.530Z,52.40
2019-05-17T04:15:16.828Z,52.60
2019-05-17T04:17:46.448Z,52.60
2019-05-17T04:20:16.469Z,52.40
2019-05-17T04:22:46.059Z,52.40
2019-05-17T04:25:16.003Z,52.40
2019-05-17T04:27:45.672Z,52.50
2019-05-17T04:30:15.523Z,52.70
2019-05-17T04:32:45.197Z,52.70
2019-05-17T04:35:14.855Z,52.60
2019-05-17T04:37:45.249Z,52.90
2019-05-17T04:40:15.122Z,52.90
2019-05-17T04:42:44.881Z,53.10
2019-05-17T04:45:14.936Z,53.10
2019-05-17T04:47:44.929Z,53.10
2019-05-17T04:50:14.846Z,53.20
2019-05-17T04:52:44.810Z,53.30
2019-05-17T04:55:15.103Z,53.30
2019-05-17T04:57:44.778Z,53.10
2019-05-17T05:00:15.669Z,53.20
2019-05-17T05:02:45.559Z,53.30
2019-05-17T05:05:17.319Z,53.30
2019-05-17T05:07:47.034Z,53.50
2019-05-17T05:10:16.771Z,53.40
2019-05-17T05:12:46.439Z,53.40
2019-05-17T05:15:17.970Z,53.40
2019-05-17T05:17:47.648Z,53.20
2019-05-17T05:20:17.668Z,53.10
2019-05-17T05:22:47.358Z,53.00
2019-05-17T05:25:17.126Z,52.90
2019-05-17T05:27:46.740Z,52.80
2019-05-17T05:30:16.433Z,52.80
2019-05-17T05:32:46.043Z,52.60
2019-05-17T05:35:15.879Z,52.60
2019-05-17T05:37:45.567Z,52.60
2019-05-17T05:40:15.314Z,52.40
2019-05-17T05:42:44.936Z,52.20
2019-05-17T05:45:14.836Z,52.10
2019-05-17T05:47:44.519Z,52.10
2019-05-17T05:50:17.589Z,51.90
2019-05-17T05:52:46.033Z,52.00
2019-05-17T05:55:17.291Z,52.00
2019-05-17T05:57:46.887Z,52.00
2019-05-17T06:00:17.380Z,52.10
2019-05-17T06:02:47.050Z,52.10
2019-05-17T06:05:17.467Z,52.00
2019-05-17T06:07:47.550Z,52.00
2019-05-17T06:10:17.677Z,52.00
2019-05-17T06:12:47.522Z,51.90
2019-05-17T06:15:18.464Z,51.90
2019-05-17T06:17:48.471Z,51.80
2019-05-17T06:20:22.299Z,51.80
2019-05-17T06:22:51.856Z,51.80
2019-05-17T06:25:23.382Z,51.90
2019-05-17T06:27:53.607Z,51.90
2019-05-17T06:30:23.888Z,51.90
2019-05-17T06:32:53.916Z,51.70
2019-05-17T06:35:23.658Z,52.10
2019-05-17T06:37:53.687Z,51.10
2019-05-17T06:40:23.795Z,51.00
2019-05-17T06:42:53.496Z,51.00
2019-05-17T06:45:24.358Z,50.80
2019-05-17T06:47:54.572Z,50.80
2019-05-17T06:50:25.987Z,50.70
2019-05-17T06:52:57.231Z,50.70
2019-05-17T06:55:27.151Z,50.80
2019-05-17T06:58:01.698Z,50.80
2019-05-17T07:00:31.179Z,50.90
2019-05-17T07:03:00.894Z,51.60
2019-05-17T07:05:33.154Z,51.10
2019-05-17T07:08:04.089Z,51.10
2019-05-17T07:10:34.720Z,51.10
2019-05-17T07:13:04.418Z,51.20
2019-05-17T07:15:43.693Z,51.20
2019-05-17T07:18:05.405Z,51.20
2019-05-17T07:20:35.284Z,51.20
2019-05-17T07:23:06.503Z,51.20
2019-05-17T07:25:39.678Z,51.20
2019-05-17T07:28:10.458Z,51.20
2019-05-17T07:30:40.383Z,50.80
2019-05-17T07:33:10.465Z,50.60
2019-05-17T07:35:40.255Z,50.30
2019-05-17T07:38:10.740Z,50.20
2019-05-17T07:40:40.650Z,50.00
2019-05-17T07:43:14.318Z,49.80
2019-05-17T07:45:41.569Z,49.80
2019-05-17T07:48:11.160Z,49.70
2019-05-17T07:50:40.786Z,49.50
2019-05-17T07:53:10.601Z,49.10
2019-05-17T07:55:40.445Z,49.10
2019-05-17T07:58:10.464Z,49.20
2019-05-17T08:00:40.418Z,49.10
2019-05-17T08:03:13.001Z,49.10
2019-05-17T08:05:41.637Z,49.00
2019-05-17T08:08:11.383Z,49.00
2019-05-17T08:10:41.349Z,49.00
2019-05-17T08:13:25.896Z,49.00
2019-05-17T08:15:42.961Z,48.80
2019-05-17T08:18:12.593Z,48.80
2019-05-17T08:20:42.204Z,48.70
2019-05-17T08:23:12.475Z,48.30
2019-05-17T08:25:52.669Z,48.10
2019-05-17T08:28:13.421Z,47.90
2019-05-17T08:30:43.021Z,47.80
2019-05-17T08:33:12.607Z,47.70
2019-05-17T08:35:43.280Z,47.60
2019-05-17T08:38:12.892Z,47.60
2019-05-17T08:40:42.754Z,47.50
2019-05-17T08:43:12.360Z,47.30
2019-05-17T08:45:42.222Z,47.40
2019-05-17T08:48:11.819Z,47.40
2019-05-17T08:50:41.434Z,47.40
2019-05-17T08:53:11.062Z,47.30
2019-05-17T08:55:41.345Z,47.10
2019-05-17T08:58:11.268Z,47.00
2019-05-17T09:00:41.104Z,46.70
2019-05-17T09:03:11.017Z,46.70
2019-05-17T09:05:41.820Z,46.30
2019-05-17T09:08:11.776Z,46.20
2019-05-17T09:10:41.397Z,45.70
2019-05-17T09:13:14.608Z,45.10
2019-05-17T09:15:42.475Z,45.20
2019-05-17T09:18:12.058Z,45.00
2019-05-17T09:20:41.672Z,44.80
2019-05-17T09:23:11.260Z,44.40
2019-05-17T09:25:40.869Z,44.60
2019-05-17T09:28:10.565Z,44.30
2019-05-17T09:30:40.761Z,44.40
2019-05-17T09:33:11.454Z,44.50
2019-05-17T09:35:41.472Z,44.30
2019-05-17T09:38:11.542Z,44.40
2019-05-17T09:40:41.133Z,44.20
2019-05-17T09:43:10.888Z,43.90
2019-05-17T09:45:40.886Z,43.40
2019-05-17T09:48:10.918Z,43.20
2019-05-17T09:50:40.514Z,42.80
2019-05-17T09:53:10.938Z,42.90
2019-05-17T09:55:40.758Z,42.80
2019-05-17T09:58:10.499Z,42.50
2019-05-17T10:00:40.108Z,42.50
2019-05-17T10:03:10.079Z,42.30
2019-05-17T10:05:40.533Z,43.00
2019-05-17T10:08:11.034Z,42.10
2019-05-17T10:10:40.866Z,41.70
2019-05-17T10:13:10.469Z,41.70
2019-05-17T10:15:40.826Z,41.50
2019-05-17T10:18:11.320Z,41.10
2019-05-17T10:20:41.029Z,41.30
2019-05-17T10:23:10.891Z,41.30
2019-05-17T10:25:40.871Z,41.30
2019-05-17T10:28:10.808Z,41.20
2019-05-17T10:30:40.458Z,41.20
2019-05-17T10:33:10.256Z,40.60
2019-05-17T10:35:40.912Z,40.10
2019-05-17T10:38:11.079Z,40.00
2019-05-17T10:40:41.239Z,40.50
2019-05-17T10:43:10.908Z,40.50
2019-05-17T10:45:40.574Z,39.90
2019-05-17T10:48:10.569Z,40.00
2019-05-17T10:50:41.021Z,40.00
2019-05-17T10:53:10.870Z,40.10
2019-05-17T10:55:40.467Z,40.20
2019-05-17T10:58:10.335Z,40.20
2019-05-17T11:00:41.222Z,40.20
2019-05-17T11:03:11.314Z,40.50
2019-05-17T11:05:40.982Z,41.30
2019-05-17T11:08:11.105Z,40.80
2019-05-17T11:10:40.755Z,41.00
2019-05-17T11:13:10.822Z,41.00
2019-05-17T11:15:40.497Z,41.20
2019-05-17T11:18:10.349Z,41.20
2019-05-17T11:20:40.292Z,41.20
2019-05-17T11:23:09.909Z,41.20
2019-05-17T11:25:44.973Z,41.00
2019-05-17T11:28:10.889Z,41.00
2019-05-17T11:30:40.513Z,41.20
2019-05-17T11:33:10.365Z,41.20
2019-05-17T11:35:39.979Z,41.30
2019-05-17T11:38:09.595Z,41.40
2019-05-17T11:40:39.366Z,41.60
2019-05-17T11:43:09.042Z,41.60
2019-05-17T11:45:38.707Z,41.50
2019-05-17T11:48:08.566Z,41.40
2019-05-17T11:50:38.182Z,41.40
2019-05-17T11:53:07.781Z,41.10
2019-05-17T11:55:37.393Z,40.80
2019-05-17T11:58:07.083Z,40.30
2019-05-17T12:00:36.671Z,39.70
2019-05-17T12:03:06.491Z,39.50
2019-05-17T12:05:36.453Z,39.10
2019-05-17T12:08:08.646Z,38.80
2019-05-17T12:10:37.764Z,38.60
2019-05-17T12:13:07.645Z,38.10
2019-05-17T12:15:44.753Z,38.10
2019-05-17T12:18:08.705Z,38.10
2019-05-17T12:20:38.573Z,37.90
2019-05-17T12:23:09.072Z,38.30
2019-05-17T12:25:39.155Z,38.40
2019-05-17T12:28:09.148Z,38.70
2019-05-17T12:30:39.886Z,38.80
2019-05-17T12:33:09.867Z,38.90
2019-05-17T12:35:41.833Z,38.70
2019-05-17T12:38:11.904Z,38.70
2019-05-17T12:40:41.776Z,39.00
2019-05-17T12:43:12.020Z,38.90
2019-05-17T12:45:42.793Z,39.10
2019-05-17T12:48:13.042Z,39.30
2019-05-17T12:50:42.861Z,39.50
2019-05-17T12:53:24.186Z,39.70
2019-05-17T12:56:10.503Z,39.90
2019-05-17T12:58:41.987Z,40.20
2019-05-17T13:01:13.250Z,40.40
2019-05-17T13:03:43.148Z,40.60
2019-05-17T13:06:15.319Z,40.80
2019-05-17T13:08:45.204Z,40.60
2019-05-17T13:11:15.175Z,40.60
2019-05-17T13:13:45.240Z,40.50
2019-05-17T13:16:18.987Z,40.10
2019-05-17T13:18:47.222Z,40.20
2019-05-17T13:21:17.032Z,39.90
2019-05-17T13:23:46.844Z,39.80
2019-05-17T13:26:16.510Z,40.00
2019-05-17T13:28:46.709Z,39.80
2019-05-17T13:31:16.649Z,39.50
2019-05-17T13:33:47.753Z,39.20
2019-05-17T13:36:17.355Z,39.00
2019-05-17T13:38:47.022Z,38.90
2019-05-17T13:41:16.914Z,38.90
2019-05-17T13:43:46.508Z,38.80
2019-05-17T13:46:16.115Z,39.10
2019-05-17T13:48:45.747Z,38.90
2019-05-17T13:51:15.345Z,38.60
2019-05-17T13:53:45.346Z,38.80
2019-05-17T13:56:14.970Z,38.80
2019-05-17T13:58:44.585Z,38.70
2019-05-17T14:01:14.207Z,38.40
2019-05-17T14:03:43.893Z,38.20
2019-05-17T14:06:13.587Z,37.80
2019-05-17T14:08:43.415Z,37.80
2019-05-17T14:11:13.246Z,37.80
2019-05-17T14:13:42.945Z,37.80
2019-05-17T14:16:12.626Z,38.00
2019-05-17T14:18:42.240Z,38.00
2019-05-17T14:21:11.818Z,38.10
2019-05-17T14:23:41.432Z,38.20
2019-05-17T14:26:11.025Z,38.10
2019-05-17T14:28:40.638Z,38.20
2019-05-17T14:31:10.753Z,38.30
2019-05-17T14:33:40.552Z,38.10
2019-05-17T14:36:10.178Z,38.10
2019-05-17T14:38:39.897Z,38.20
2019-05-17T14:41:09.629Z,38.20
2019-05-17T14:43:39.225Z,38.10
2019-05-17T14:46:08.847Z,38.20
2019-05-17T14:48:38.450Z,38.10
2019-05-17T14:51:08.056Z,38.20
2019-05-17T14:53:37.705Z,38.30
2019-05-17T14:56:07.743Z,38.50
2019-05-17T14:58:37.337Z,38.70
2019-05-17T15:01:06.958Z,38.80
2019-05-17T15:03:36.633Z,38.90
2019-05-17T15:06:06.286Z,39.20
2019-05-17T15:08:35.895Z,39.30
2019-05-17T15:11:05.529Z,39.40
2019-05-17T15:13:36.623Z,39.60
2019-05-17T15:16:06.609Z,39.70
2019-05-17T15:18:36.341Z,39.80
2019-05-17T15:21:05.943Z,40.10
2019-05-17T15:23:35.619Z,40.30
2019-05-17T15:26:05.223Z,40.50
2019-05-17T15:28:35.074Z,40.70
2019-05-17T15:31:06.267Z,40.90
2019-05-17T15:33:35.886Z,41.00
2019-05-17T15:36:05.605Z,41.30
2019-05-17T15:38:35.242Z,41.30
2019-05-17T15:41:05.694Z,41.40
2019-05-17T15:43:37.080Z,41.50
2019-05-17T15:46:06.848Z,41.50
2019-05-17T15:48:36.546Z,41.60
2019-05-17T15:51:06.135Z,41.70
2019-05-17T15:53:35.786Z,41.80
2019-05-17T15:56:05.779Z,41.90
2019-05-17T15:58:35.378Z,42.10
2019-05-17T16:01:05.581Z,42.00
2019-05-17T16:03:35.251Z,42.00
2019-05-17T16:06:04.975Z,42.00
2019-05-17T16:08:34.600Z,42.00
2019-05-17T16:11:04.532Z,42.00
2019-05-17T16:13:34.141Z,42.00
2019-05-17T16:16:04.041Z,42.00
2019-05-17T16:18:33.736Z,42.00
2019-05-17T16:21:03.389Z,42.00
2019-05-17T16:23:33.050Z,41.90
2019-05-17T16:26:02.685Z,41.80
2019-05-17T16:28:32.339Z,41.80
2019-05-17T16:31:02.019Z,41.70
2019-05-17T16:33:31.616Z,41.90
2019-05-17T16:36:01.227Z,41.90
2019-05-17T16:38:30.834Z,42.00
2019-05-17T16:41:02.215Z,42.00
2019-05-17T16:43:31.885Z,42.00
2019-05-17T16:46:02.779Z,41.90
2019-05-17T16:48:33.584Z,41.90
2019-05-17T16:51:03.230Z,42.00
2019-05-17T16:53:32.900Z,42.00
2019-05-17T16:56:02.589Z,42.10
2019-05-17T16:58:32.188Z,42.20
2019-05-17T17:01:03.739Z,42.10
2019-05-17T17:03:43.642Z,42.00
2019-05-17T17:06:05.933Z,41.90
2019-05-17T17:08:37.703Z,41.90
2019-05-17T17:11:07.404Z,41.80
2019-05-17T17:13:37.070Z,41.90
2019-05-17T17:16:06.902Z,42.00
2019-05-17T17:18:36.514Z,42.10
2019-05-17T17:21:06.241Z,42.10
2019-05-17T17:23:35.869Z,42.20
2019-05-17T17:26:05.604Z,42.20
2019-05-17T17:28:35.202Z,42.20
2019-05-17T17:31:06.664Z,42.20
2019-05-17T17:33:36.516Z,42.20
2019-05-17T17:36:06.238Z,42.30
2019-05-17T17:38:35.831Z,42.30
2019-05-17T17:41:05.778Z,42.30
2019-05-17T17:43:35.410Z,42.30
2019-05-17T17:46:06.278Z,42.30
2019-05-17T17:48:35.997Z,42.50
2019-05-17T17:51:05.677Z,42.60
2019-05-17T17:53:35.291Z,42.70
2019-05-17T17:56:04.952Z,42.70
2019-05-17T17:58:34.905Z,42.70
2019-05-17T18:01:05.118Z,42.70
2019-05-17T18:03:34.775Z,42.80
2019-05-17T18:06:04.757Z,42.80
2019-05-17T18:08:34.824Z,42.80
2019-05-17T18:11:04.455Z,42.90
2019-05-17T18:13:34.078Z,42.70
2019-05-17T18:16:03.696Z,42.80
2019-05-17T18:18:34.303Z,42.70
2019-05-17T18:21:03.899Z,42.70
2019-05-17T18:23:33.528Z,42.80
2019-05-17T18:26:03.165Z,43.00
2019-05-17T18:28:33.752Z,43.00
2019-05-17T18:31:03.416Z,43.00
2019-05-17T18:33:33.090Z,43.10
2019-05-17T18:36:03.059Z,43.10
2019-05-17T18:38:34.758Z,43.20
2019-05-17T18:41:04.436Z,43.20
2019-05-17T18:43:34.031Z,43.30
2019-05-17T18:46:03.710Z,43.40
2019-05-17T18:48:33.476Z,43.50
2019-05-17T18:51:03.088Z,44.30
2019-05-17T18:53:32.858Z,43.60
2019-05-17T18:56:02.455Z,43.80
2019-05-17T18:58:32.108Z,43.80
2019-05-17T19:01:02.306Z,44.00
2019-05-17T19:03:32.259Z,44.80
2019-05-17T19:06:01.881Z,44.20
2019-05-17T19:08:31.494Z,44.30
2019-05-17T19:11:01.094Z,44.40
2019-05-17T19:13:30.791Z,44.50
2019-05-17T19:16:00.472Z,44.60
2019-05-17T19:18:30.109Z,44.70
2019-05-17T19:20:59.709Z,44.70
2019-05-17T19:23:29.318Z,44.70
2019-05-17T19:25:58.968Z,44.80
2019-05-17T19:28:28.548Z,44.90
2019-05-17T19:30:58.257Z,44.90
2019-05-17T19:33:27.891Z,45.00
2019-05-17T19:35:57.486Z,45.10
2019-05-17T19:38:27.109Z,45.20
2019-05-17T19:40:56.717Z,45.30
2019-05-17T19:43:26.443Z,45.30
2019-05-17T19:45:56.051Z,45.40
2019-05-17T19:48:27.292Z,45.40
2019-05-17T19:50:56.904Z,45.50
2019-05-17T19:53:26.557Z,45.50
2019-05-17T19:55:56.193Z,45.60
2019-05-17T19:58:25.814Z,45.70
2019-05-17T20:00:55.406Z,45.70
2019-05-17T20:03:25.066Z,45.80
2019-05-17T20:05:54.740Z,45.80
2019-05-17T20:08:24.374Z,45.90
2019-05-17T20:10:54.023Z,45.90
2019-05-17T20:13:23.960Z,46.00
2019-05-17T20:15:53.572Z,46.00
2019-05-17T20:18:23.220Z,46.10
2019-05-17T20:20:52.890Z,46.20
2019-05-17T20:23:22.576Z,46.30
2019-05-17T20:25:52.188Z,46.30
2019-05-17T20:28:21.787Z,46.30
2019-05-17T20:30:51.490Z,46.40
2019-05-17T20:33:21.107Z,46.50
2019-05-17T20:35:50.707Z,46.60
2019-05-17T20:38:20.350Z,46.70
2019-05-17T20:40:49.942Z,46.80
2019-05-17T20:43:19.800Z,46.70
2019-05-17T20:45:49.400Z,46.90
2019-05-17T20:48:19.012Z,46.80
2019-05-17T20:50:48.608Z,46.90
2019-05-17T20:53:19.477Z,47.00
2019-05-17T20:55:49.180Z,47.00
2019-05-17T20:58:18.803Z,47.10
2019-05-17T21:00:48.501Z,47.20
2019-05-17T21:03:18.110Z,47.30
2019-05-17T21:05:47.713Z,47.30
2019-05-17T21:08:17.336Z,47.30
2019-05-17T21:10:47.294Z,47.40
2019-05-17T21:13:16.890Z,47.40
2019-05-17T21:15:48.091Z,47.50
2019-05-17T21:18:18.020Z,47.60
2019-05-17T21:20:47.627Z,47.60
2019-05-17T21:23:17.245Z,47.70
2019-05-17T21:25:46.963Z,47.70
2019-05-17T21:28:16.565Z,47.70
2019-05-17T21:30:46.185Z,47.70
2019-05-17T21:33:15.893Z,47.70
2019-05-17T21:35:45.568Z,47.80
2019-05-17T21:38:15.460Z,47.90
2019-05-17T21:40:45.082Z,47.90
2019-05-17T21:43:14.683Z,47.90
2019-05-17T21:45:44.296Z,47.80
2019-05-17T21:48:13.976Z,47.90
2019-05-17T21:50:43.827Z,48.10
2019-05-17T21:53:13.515Z,48.20
2019-05-17T21:55:43.117Z,48.30
2019-05-17T21:58:12.991Z,48.40
2019-05-17T22:01:07.670Z,48.50
2019-05-17T22:03:37.453Z,48.50
2019-05-17T22:06:07.240Z,48.50
2019-05-17T22:08:37.069Z,48.70
2019-05-17T22:11:06.815Z,48.70
2019-05-17T22:13:36.425Z,48.80
2019-05-17T22:16:18.548Z,49.00
2019-05-17T22:18:37.765Z,49.00
2019-05-17T22:21:07.444Z,49.10
2019-05-17T22:23:37.192Z,49.30
2019-05-17T22:26:06.863Z,49.50
2019-05-17T22:28:36.426Z,49.50
2019-05-17T22:31:06.269Z,49.60
2019-05-17T22:33:35.877Z,49.80
2019-05-17T22:36:05.476Z,49.90
2019-05-17T22:38:35.091Z,50.00
2019-05-17T22:41:05.722Z,50.10
2019-05-17T22:43:35.338Z,50.20
2019-05-17T22:46:04.966Z,50.40
2019-05-17T22:48:34.673Z,50.50
2019-05-17T22:51:04.254Z,50.50
2019-05-17T22:53:33.947Z,50.90
2019-05-17T22:56:03.555Z,51.00
2019-05-17T22:58:33.240Z,50.80
2019-05-17T23:01:02.881Z,50.90
2019-05-17T23:03:32.487Z,51.00
2019-05-17T23:06:02.114Z,51.20
2019-05-17T23:08:31.713Z,51.20
2019-05-17T23:11:01.346Z,51.30
2019-05-17T23:13:31.059Z,51.40
2019-05-17T23:16:01.432Z,51.50
2019-05-17T23:18:33.258Z,51.50
2019-05-17T23:21:03.405Z,51.70
2019-05-17T23:23:33.016Z,51.80
2019-05-17T23:26:02.766Z,51.90
2019-05-17T23:28:32.390Z,52.00
2019-05-17T23:31:02.106Z,52.10
2019-05-17T23:33:31.711Z,52.40
2019-05-17T23:36:01.404Z,53.20
2019-05-17T23:38:31.265Z,52.70
2019-05-17T23:41:01.150Z,52.80
2019-05-17T23:43:30.759Z,53.00
2019-05-17T23:46:00.352Z,53.10
2019-05-17T23:48:29.971Z,53.20
2019-05-17T23:50:59.583Z,53.40
2019-05-17T23:53:29.457Z,53.40
2019-05-17T23:55:59.074Z,53.70
2019-05-17T23:58:29.657Z,53.70
